sensor_id;sensor_type;location;lat;lon;timestamp;P1;durP1;ratioP1;P2;durP2;ratioP2
55268;SDS011;41131;42.990;21.954;2023-01-16T00:01:59;362.52;;;238.02;;
55268;SDS011;41131;42.990;21.954;2023-01-16T00:04:26;361.67;;;243.90;;
55268;SDS011;41131;42.990;21.954;2023-01-16T00:06:52;383.55;;;251.07;;
55268;SDS011;41131;42.990;21.954;2023-01-16T00:09:18;413.35;;;274.85;;
55268;SDS011;41131;42.990;21.954;2023-01-16T00:11:44;417.88;;;278.05;;
55268;SDS011;41131;42.990;21.954;2023-01-16T00:14:11;391.15;;;256.50;;
55268;SDS011;41131;42.990;21.954;2023-01-16T00:16:37;364.58;;;235.73;;
55268;SDS011;41131;42.990;21.954;2023-01-16T00:19:03;360.50;;;231.82;;
55268;SDS011;41131;42.990;21.954;2023-01-16T00:21:29;329.25;;;211.30;;
55268;SDS011;41131;42.990;21.954;2023-01-16T00:23:55;250.95;;;161.95;;
55268;SDS011;41131;42.990;21.954;2023-01-16T00:26:22;182.18;;;118.18;;
55268;SDS011;41131;42.990;21.954;2023-01-16T00:28:48;168.57;;;106.28;;
55268;SDS011;41131;42.990;21.954;2023-01-16T00:31:14;127.45;;;85.38;;
55268;SDS011;41131;42.990;21.954;2023-01-16T00:33:41;114.72;;;78.03;;
55268;SDS011;41131;42.990;21.954;2023-01-16T00:36:08;123.57;;;81.80;;
55268;SDS011;41131;42.990;21.954;2023-01-16T00:38:34;118.75;;;79.75;;
55268;SDS011;41131;42.990;21.954;2023-01-16T00:41:00;125.53;;;82.43;;
55268;SDS011;41131;42.990;21.954;2023-01-16T00:43:26;132.35;;;84.20;;
55268;SDS011;41131;42.990;21.954;2023-01-16T00:45:52;131.70;;;84.95;;
55268;SDS011;41131;42.990;21.954;2023-01-16T00:48:19;131.95;;;82.68;;
55268;SDS011;41131;42.990;21.954;2023-01-16T00:50:45;125.43;;;80.35;;
55268;SDS011;41131;42.990;21.954;2023-01-16T00:53:11;127.13;;;83.63;;
55268;SDS011;41131;42.990;21.954;2023-01-16T00:55:37;127.28;;;82.70;;
55268;SDS011;41131;42.990;21.954;2023-01-16T00:58:06;145.40;;;88.95;;
55268;SDS011;41131;42.990;21.954;2023-01-16T01:00:32;124.75;;;82.30;;
55268;SDS011;41131;42.990;21.954;2023-01-16T01:02:58;129.45;;;80.30;;
55268;SDS011;41131;42.990;21.954;2023-01-16T01:05:24;117.25;;;75.15;;
55268;SDS011;41131;42.990;21.954;2023-01-16T01:07:50;105.75;;;67.30;;
55268;SDS011;41131;42.990;21.954;2023-01-16T01:10:16;97.30;;;65.07;;
55268;SDS011;41131;42.990;21.954;2023-01-16T01:12:42;92.70;;;61.75;;
55268;SDS011;41131;42.990;21.954;2023-01-16T01:15:08;84.57;;;52.92;;
55268;SDS011;41131;42.990;21.954;2023-01-16T01:17:35;99.07;;;59.25;;
55268;SDS011;41131;42.990;21.954;2023-01-16T01:20:01;91.07;;;56.85;;
55268;SDS011;41131;42.990;21.954;2023-01-16T01:22:27;89.28;;;53.58;;
55268;SDS011;41131;42.990;21.954;2023-01-16T01:24:53;101.82;;;59.90;;
55268;SDS011;41131;42.990;21.954;2023-01-16T01:27:19;75.10;;;48.95;;
55268;SDS011;41131;42.990;21.954;2023-01-16T01:29:45;68.88;;;46.58;;
55268;SDS011;41131;42.990;21.954;2023-01-16T01:32:11;64.43;;;45.92;;
55268;SDS011;41131;42.990;21.954;2023-01-16T01:34:37;65.50;;;42.85;;
55268;SDS011;41131;42.990;21.954;2023-01-16T01:37:05;72.88;;;47.65;;
55268;SDS011;41131;42.990;21.954;2023-01-16T01:39:31;92.50;;;56.65;;
55268;SDS011;41131;42.990;21.954;2023-01-16T01:41:57;78.22;;;50.60;;
55268;SDS011;41131;42.990;21.954;2023-01-16T01:47:11;72.30;;;42.15;;
55268;SDS011;41131;42.990;21.954;2023-01-16T01:49:37;71.30;;;43.95;;
55268;SDS011;41131;42.990;21.954;2023-01-16T01:52:04;64.78;;;42.47;;
55268;SDS011;41131;42.990;21.954;2023-01-16T01:54:32;71.28;;;43.58;;
55268;SDS011;41131;42.990;21.954;2023-01-16T01:57:03;126.10;;;71.32;;
55268;SDS011;41131;42.990;21.954;2023-01-16T01:59:36;107.70;;;63.60;;
55268;SDS011;41131;42.990;21.954;2023-01-16T02:02:03;91.10;;;55.85;;
55268;SDS011;41131;42.990;21.954;2023-01-16T02:04:31;77.28;;;49.67;;
55268;SDS011;41131;42.990;21.954;2023-01-16T02:06:59;60.25;;;39.95;;
55268;SDS011;41131;42.990;21.954;2023-01-16T02:09:26;61.33;;;40.45;;
55268;SDS011;41131;42.990;21.954;2023-01-16T02:11:57;60.90;;;39.03;;
55268;SDS011;41131;42.990;21.954;2023-01-16T02:14:27;61.85;;;39.97;;
55268;SDS011;41131;42.990;21.954;2023-01-16T02:17:03;60.42;;;39.20;;
55268;SDS011;41131;42.990;21.954;2023-01-16T02:19:51;70.72;;;43.97;;
55268;SDS011;41131;42.990;21.954;2023-01-16T02:23:10;62.83;;;40.65;;
55268;SDS011;41131;42.990;21.954;2023-01-16T02:28:05;33.25;;;22.83;;
55268;SDS011;41131;42.990;21.954;2023-01-16T02:38:13;44.00;;;27.95;;
55268;SDS011;41131;42.990;21.954;2023-01-16T02:43:19;42.25;;;27.33;;
55268;SDS011;41131;42.990;21.954;2023-01-16T02:46:02;43.47;;;27.65;;
55268;SDS011;41131;42.990;21.954;2023-01-16T02:50:58;35.10;;;24.17;;
55268;SDS011;41131;42.990;21.954;2023-01-16T02:55:57;41.92;;;27.77;;
55268;SDS011;41131;42.990;21.954;2023-01-16T02:58:27;42.33;;;30.20;;
55268;SDS011;41131;42.990;21.954;2023-01-16T03:00:56;49.22;;;31.00;;
55268;SDS011;41131;42.990;21.954;2023-01-16T03:11:29;33.20;;;22.52;;
55268;SDS011;41131;42.990;21.954;2023-01-16T03:14:16;28.60;;;19.27;;
55268;SDS011;41131;42.990;21.954;2023-01-16T03:29:36;22.67;;;16.23;;
55268;SDS011;41131;42.990;21.954;2023-01-16T03:32:07;23.58;;;16.95;;
55268;SDS011;41131;42.990;21.954;2023-01-16T03:37:11;35.22;;;18.73;;
55268;SDS011;41131;42.990;21.954;2023-01-16T03:39:41;36.25;;;22.88;;
55268;SDS011;41131;42.990;21.954;2023-01-16T03:42:09;35.00;;;23.35;;
55268;SDS011;41131;42.990;21.954;2023-01-16T03:44:47;38.97;;;24.70;;
55268;SDS011;41131;42.990;21.954;2023-01-16T03:47:16;34.05;;;24.02;;
55268;SDS011;41131;42.990;21.954;2023-01-16T03:49:46;37.50;;;25.17;;
55268;SDS011;41131;42.990;21.954;2023-01-16T03:52:14;34.10;;;22.92;;
55268;SDS011;41131;42.990;21.954;2023-01-16T03:57:27;41.33;;;27.73;;
55268;SDS011;41131;42.990;21.954;2023-01-16T03:59:53;40.33;;;28.73;;
55268;SDS011;41131;42.990;21.954;2023-01-16T04:12:17;58.92;;;40.92;;
55268;SDS011;41131;42.990;21.954;2023-01-16T04:14:45;61.35;;;42.45;;
55268;SDS011;41131;42.990;21.954;2023-01-16T04:17:14;70.45;;;46.95;;
55268;SDS011;41131;42.990;21.954;2023-01-16T04:19:40;73.95;;;49.53;;
55268;SDS011;41131;42.990;21.954;2023-01-16T04:22:06;78.32;;;51.75;;
55268;SDS011;41131;42.990;21.954;2023-01-16T04:24:34;79.32;;;51.88;;
55268;SDS011;41131;42.990;21.954;2023-01-16T04:27:00;76.15;;;50.15;;
55268;SDS011;41131;42.990;21.954;2023-01-16T04:29:27;77.40;;;52.47;;
55268;SDS011;41131;42.990;21.954;2023-01-16T04:31:53;77.13;;;48.83;;
55268;SDS011;41131;42.990;21.954;2023-01-16T04:34:19;66.47;;;45.28;;
55268;SDS011;41131;42.990;21.954;2023-01-16T04:36:45;68.90;;;44.72;;
55268;SDS011;41131;42.990;21.954;2023-01-16T04:39:11;84.03;;;51.40;;
55268;SDS011;41131;42.990;21.954;2023-01-16T04:41:37;71.82;;;48.72;;
55268;SDS011;41131;42.990;21.954;2023-01-16T04:44:08;77.18;;;47.72;;
55268;SDS011;41131;42.990;21.954;2023-01-16T04:46:35;82.18;;;52.15;;
55268;SDS011;41131;42.990;21.954;2023-01-16T04:49:03;77.55;;;51.28;;
55268;SDS011;41131;42.990;21.954;2023-01-16T04:51:29;75.57;;;46.85;;
55268;SDS011;41131;42.990;21.954;2023-01-16T04:53:55;75.60;;;47.55;;
55268;SDS011;41131;42.990;21.954;2023-01-16T04:56:21;76.20;;;46.40;;
55268;SDS011;41131;42.990;21.954;2023-01-16T04:58:48;79.88;;;46.80;;
55268;SDS011;41131;42.990;21.954;2023-01-16T05:01:16;89.38;;;52.38;;
55268;SDS011;41131;42.990;21.954;2023-01-16T05:03:42;105.00;;;62.05;;
55268;SDS011;41131;42.990;21.954;2023-01-16T05:06:08;91.72;;;55.42;;
55268;SDS011;41131;42.990;21.954;2023-01-16T05:08:34;87.93;;;55.35;;
55268;SDS011;41131;42.990;21.954;2023-01-16T05:11:01;78.35;;;49.72;;
55268;SDS011;41131;42.990;21.954;2023-01-16T05:13:28;78.10;;;46.60;;
55268;SDS011;41131;42.990;21.954;2023-01-16T05:15:54;70.45;;;48.42;;
55268;SDS011;41131;42.990;21.954;2023-01-16T05:18:20;71.43;;;50.28;;
55268;SDS011;41131;42.990;21.954;2023-01-16T05:20:46;69.60;;;47.30;;
55268;SDS011;41131;42.990;21.954;2023-01-16T05:23:12;72.07;;;44.85;;
55268;SDS011;41131;42.990;21.954;2023-01-16T05:25:39;107.75;;;67.68;;
55268;SDS011;41131;42.990;21.954;2023-01-16T05:28:05;90.82;;;57.38;;
55268;SDS011;41131;42.990;21.954;2023-01-16T05:30:31;75.45;;;50.83;;
55268;SDS011;41131;42.990;21.954;2023-01-16T05:32:58;76.88;;;48.72;;
55268;SDS011;41131;42.990;21.954;2023-01-16T05:35:24;74.13;;;49.30;;
55268;SDS011;41131;42.990;21.954;2023-01-16T05:37:50;65.10;;;44.05;;
55268;SDS011;41131;42.990;21.954;2023-01-16T05:40:16;66.28;;;43.75;;
55268;SDS011;41131;42.990;21.954;2023-01-16T05:42:43;67.80;;;42.88;;
55268;SDS011;41131;42.990;21.954;2023-01-16T05:45:09;67.20;;;43.22;;
55268;SDS011;41131;42.990;21.954;2023-01-16T05:47:35;63.95;;;44.40;;
55268;SDS011;41131;42.990;21.954;2023-01-16T05:50:02;72.85;;;46.88;;
55268;SDS011;41131;42.990;21.954;2023-01-16T05:52:28;80.22;;;47.15;;
55268;SDS011;41131;42.990;21.954;2023-01-16T05:54:54;72.57;;;45.20;;
55268;SDS011;41131;42.990;21.954;2023-01-16T05:57:21;60.50;;;43.33;;
55268;SDS011;41131;42.990;21.954;2023-01-16T05:59:48;67.80;;;44.13;;
55268;SDS011;41131;42.990;21.954;2023-01-16T06:02:14;80.18;;;46.88;;
55268;SDS011;41131;42.990;21.954;2023-01-16T06:04:40;75.50;;;45.55;;
55268;SDS011;41131;42.990;21.954;2023-01-16T06:07:06;81.60;;;49.03;;
55268;SDS011;41131;42.990;21.954;2023-01-16T06:09:32;88.80;;;52.88;;
55268;SDS011;41131;42.990;21.954;2023-01-16T06:11:58;95.93;;;63.30;;
55268;SDS011;41131;42.990;21.954;2023-01-16T06:14:24;87.38;;;56.83;;
55268;SDS011;41131;42.990;21.954;2023-01-16T06:16:50;88.50;;;55.95;;
55268;SDS011;41131;42.990;21.954;2023-01-16T06:19:16;84.88;;;54.17;;
55268;SDS011;41131;42.990;21.954;2023-01-16T06:21:43;91.25;;;50.17;;
55268;SDS011;41131;42.990;21.954;2023-01-16T06:24:09;85.60;;;54.72;;
55268;SDS011;41131;42.990;21.954;2023-01-16T06:26:36;90.30;;;54.47;;
55268;SDS011;41131;42.990;21.954;2023-01-16T06:29:02;88.53;;;53.70;;
55268;SDS011;41131;42.990;21.954;2023-01-16T06:31:28;96.22;;;58.22;;
55268;SDS011;41131;42.990;21.954;2023-01-16T06:33:55;81.40;;;54.83;;
55268;SDS011;41131;42.990;21.954;2023-01-16T06:36:21;73.95;;;52.47;;
55268;SDS011;41131;42.990;21.954;2023-01-16T06:38:47;85.97;;;48.05;;
55268;SDS011;41131;42.990;21.954;2023-01-16T06:41:13;60.00;;;40.67;;
55268;SDS011;41131;42.990;21.954;2023-01-16T06:43:39;79.90;;;56.15;;
55268;SDS011;41131;42.990;21.954;2023-01-16T06:46:05;102.50;;;71.85;;
55268;SDS011;41131;42.990;21.954;2023-01-16T06:48:32;107.15;;;75.78;;
55268;SDS011;41131;42.990;21.954;2023-01-16T06:50:59;108.47;;;90.10;;
55268;SDS011;41131;42.990;21.954;2023-01-16T06:53:25;106.82;;;83.95;;
55268;SDS011;41131;42.990;21.954;2023-01-16T06:55:51;87.80;;;62.08;;
55268;SDS011;41131;42.990;21.954;2023-01-16T06:58:17;70.80;;;45.63;;
55268;SDS011;41131;42.990;21.954;2023-01-16T07:00:43;46.58;;;30.88;;
55268;SDS011;41131;42.990;21.954;2023-01-16T07:03:10;35.50;;;23.75;;
55268;SDS011;41131;42.990;21.954;2023-01-16T07:05:37;33.90;;;22.40;;
55268;SDS011;41131;42.990;21.954;2023-01-16T07:08:04;31.58;;;22.98;;
55268;SDS011;41131;42.990;21.954;2023-01-16T07:10:30;33.92;;;23.00;;
55268;SDS011;41131;42.990;21.954;2023-01-16T07:12:56;32.40;;;22.48;;
55268;SDS011;41131;42.990;21.954;2023-01-16T07:15:22;36.92;;;25.95;;
55268;SDS011;41131;42.990;21.954;2023-01-16T07:18:09;32.53;;;21.63;;
55268;SDS011;41131;42.990;21.954;2023-01-16T07:20:57;32.13;;;22.90;;
55268;SDS011;41131;42.990;21.954;2023-01-16T07:24:16;35.08;;;23.98;;
55268;SDS011;41131;42.990;21.954;2023-01-16T07:26:35;34.95;;;25.60;;
55268;SDS011;41131;42.990;21.954;2023-01-16T07:29:02;34.33;;;24.45;;
55268;SDS011;41131;42.990;21.954;2023-01-16T07:31:29;41.17;;;29.90;;
55268;SDS011;41131;42.990;21.954;2023-01-16T07:33:56;37.10;;;26.98;;
55268;SDS011;41131;42.990;21.954;2023-01-16T07:36:22;33.80;;;25.60;;
55268;SDS011;41131;42.990;21.954;2023-01-16T07:38:48;38.63;;;28.13;;
55268;SDS011;41131;42.990;21.954;2023-01-16T07:41:14;43.45;;;32.13;;
55268;SDS011;41131;42.990;21.954;2023-01-16T07:43:41;38.97;;;27.58;;
55268;SDS011;41131;42.990;21.954;2023-01-16T07:46:07;59.95;;;40.92;;
55268;SDS011;41131;42.990;21.954;2023-01-16T07:48:33;62.50;;;41.70;;
55268;SDS011;41131;42.990;21.954;2023-01-16T07:50:59;36.83;;;26.92;;
55268;SDS011;41131;42.990;21.954;2023-01-16T07:53:26;34.63;;;25.63;;
55268;SDS011;41131;42.990;21.954;2023-01-16T07:55:53;27.65;;;19.85;;
55268;SDS011;41131;42.990;21.954;2023-01-16T07:58:20;24.15;;;18.38;;
55268;SDS011;41131;42.990;21.954;2023-01-16T08:00:46;35.70;;;23.75;;
55268;SDS011;41131;42.990;21.954;2023-01-16T08:03:13;26.98;;;18.52;;
55268;SDS011;41131;42.990;21.954;2023-01-16T08:05:39;25.35;;;18.35;;
55268;SDS011;41131;42.990;21.954;2023-01-16T08:08:05;38.53;;;25.92;;
55268;SDS011;41131;42.990;21.954;2023-01-16T08:10:31;45.85;;;31.10;;
55268;SDS011;41131;42.990;21.954;2023-01-16T08:12:57;25.58;;;20.17;;
55268;SDS011;41131;42.990;21.954;2023-01-16T08:15:24;30.17;;;21.02;;
55268;SDS011;41131;42.990;21.954;2023-01-16T08:17:50;30.95;;;22.60;;
55268;SDS011;41131;42.990;21.954;2023-01-16T08:20:16;28.20;;;22.80;;
55268;SDS011;41131;42.990;21.954;2023-01-16T08:22:46;31.50;;;23.13;;
55268;SDS011;41131;42.990;21.954;2023-01-16T08:25:12;37.13;;;27.67;;
55268;SDS011;41131;42.990;21.954;2023-01-16T08:27:39;36.55;;;27.85;;
55268;SDS011;41131;42.990;21.954;2023-01-16T08:30:06;30.33;;;24.70;;
55268;SDS011;41131;42.990;21.954;2023-01-16T08:32:32;30.52;;;22.88;;
55268;SDS011;41131;42.990;21.954;2023-01-16T08:34:58;26.02;;;21.30;;
55268;SDS011;41131;42.990;21.954;2023-01-16T08:37:24;32.35;;;23.90;;
55268;SDS011;41131;42.990;21.954;2023-01-16T08:39:53;56.75;;;34.10;;
55268;SDS011;41131;42.990;21.954;2023-01-16T08:42:19;41.40;;;28.73;;
55268;SDS011;41131;42.990;21.954;2023-01-16T08:45:04;42.67;;;31.25;;
55268;SDS011;41131;42.990;21.954;2023-01-16T08:47:49;51.85;;;35.20;;
55268;SDS011;41131;42.990;21.954;2023-01-16T08:50:33;34.22;;;23.35;;
55268;SDS011;41131;42.990;21.954;2023-01-16T08:53:18;26.13;;;18.98;;
55268;SDS011;41131;42.990;21.954;2023-01-16T08:55:44;26.13;;;20.13;;
55268;SDS011;41131;42.990;21.954;2023-01-16T08:58:10;29.00;;;20.63;;
55268;SDS011;41131;42.990;21.954;2023-01-16T09:00:36;28.85;;;19.75;;
55268;SDS011;41131;42.990;21.954;2023-01-16T09:03:03;23.85;;;18.85;;
55268;SDS011;41131;42.990;21.954;2023-01-16T09:05:29;27.95;;;22.42;;
55268;SDS011;41131;42.990;21.954;2023-01-16T09:07:55;29.67;;;21.33;;
55268;SDS011;41131;42.990;21.954;2023-01-16T09:10:21;30.33;;;19.48;;
55268;SDS011;41131;42.990;21.954;2023-01-16T09:12:47;26.42;;;19.88;;
55268;SDS011;41131;42.990;21.954;2023-01-16T09:15:32;21.67;;;17.75;;
55268;SDS011;41131;42.990;21.954;2023-01-16T09:17:58;28.52;;;21.50;;
55268;SDS011;41131;42.990;21.954;2023-01-16T09:20:24;28.80;;;21.60;;
55268;SDS011;41131;42.990;21.954;2023-01-16T09:22:55;26.27;;;19.88;;
55268;SDS011;41131;42.990;21.954;2023-01-16T09:25:22;28.80;;;22.45;;
55268;SDS011;41131;42.990;21.954;2023-01-16T09:27:48;33.72;;;24.23;;
55268;SDS011;41131;42.990;21.954;2023-01-16T09:30:14;33.75;;;24.88;;
55268;SDS011;41131;42.990;21.954;2023-01-16T09:32:40;54.28;;;33.00;;
55268;SDS011;41131;42.990;21.954;2023-01-16T09:35:06;31.15;;;23.67;;
55268;SDS011;41131;42.990;21.954;2023-01-16T09:37:32;34.03;;;25.25;;
55268;SDS011;41131;42.990;21.954;2023-01-16T09:39:58;34.17;;;25.58;;
55268;SDS011;41131;42.990;21.954;2023-01-16T09:45:13;36.13;;;25.35;;
55268;SDS011;41131;42.990;21.954;2023-01-16T09:47:42;26.23;;;19.92;;
55268;SDS011;41131;42.990;21.954;2023-01-16T09:52:35;21.33;;;16.50;;
55268;SDS011;41131;42.990;21.954;2023-01-16T09:55:26;20.77;;;15.95;;
55268;SDS011;41131;42.990;21.954;2023-01-16T09:58:13;25.05;;;16.85;;
55268;SDS011;41131;42.990;21.954;2023-01-16T10:00:59;24.88;;;16.83;;
55268;SDS011;41131;42.990;21.954;2023-01-16T10:03:26;24.98;;;18.60;;
55268;SDS011;41131;42.990;21.954;2023-01-16T10:06:27;22.92;;;18.52;;
55268;SDS011;41131;42.990;21.954;2023-01-16T10:11:22;32.80;;;18.83;;
55268;SDS011;41131;42.990;21.954;2023-01-16T10:13:52;73.82;;;46.00;;
55268;SDS011;41131;42.990;21.954;2023-01-16T10:29:30;64.50;;;48.70;;
55268;SDS011;41131;42.990;21.954;2023-01-16T10:36:56;65.07;;;45.58;;
55268;SDS011;41131;42.990;21.954;2023-01-16T10:39:24;58.45;;;32.75;;
55268;SDS011;41131;42.990;21.954;2023-01-16T10:41:54;40.58;;;28.02;;
55268;SDS011;41131;42.990;21.954;2023-01-16T10:44:42;32.17;;;23.15;;
55268;SDS011;41131;42.990;21.954;2023-01-16T10:47:28;54.50;;;35.13;;
55268;SDS011;41131;42.990;21.954;2023-01-16T10:50:14;98.43;;;66.85;;
55268;SDS011;41131;42.990;21.954;2023-01-16T10:52:40;50.90;;;39.33;;
55268;SDS011;41131;42.990;21.954;2023-01-16T10:55:07;50.80;;;34.60;;
55268;SDS011;41131;42.990;21.954;2023-01-16T10:57:34;46.40;;;32.95;;
55268;SDS011;41131;42.990;21.954;2023-01-16T11:00:05;37.13;;;23.67;;
55268;SDS011;41131;42.990;21.954;2023-01-16T11:02:33;31.55;;;20.83;;
55268;SDS011;41131;42.990;21.954;2023-01-16T11:05:00;32.22;;;21.20;;
55268;SDS011;41131;42.990;21.954;2023-01-16T11:07:29;75.05;;;46.05;;
55268;SDS011;41131;42.990;21.954;2023-01-16T11:09:55;91.20;;;49.90;;
55268;SDS011;41131;42.990;21.954;2023-01-16T11:12:23;73.25;;;45.28;;
55268;SDS011;41131;42.990;21.954;2023-01-16T11:15:19;84.88;;;47.20;;
55268;SDS011;41131;42.990;21.954;2023-01-16T11:18:17;38.58;;;28.25;;
55268;SDS011;41131;42.990;21.954;2023-01-16T11:20:53;45.00;;;27.38;;
55268;SDS011;41131;42.990;21.954;2023-01-16T11:23:20;40.42;;;25.35;;
55268;SDS011;41131;42.990;21.954;2023-01-16T11:25:47;29.23;;;20.10;;
55268;SDS011;41131;42.990;21.954;2023-01-16T11:28:17;46.90;;;27.65;;
55268;SDS011;41131;42.990;21.954;2023-01-16T11:30:45;33.25;;;23.05;;
55268;SDS011;41131;42.990;21.954;2023-01-16T11:33:21;37.03;;;21.33;;
55268;SDS011;41131;42.990;21.954;2023-01-16T11:35:52;31.30;;;19.10;;
55268;SDS011;41131;42.990;21.954;2023-01-16T11:38:20;34.92;;;22.25;;
55268;SDS011;41131;42.990;21.954;2023-01-16T11:40:47;25.63;;;20.00;;
55268;SDS011;41131;42.990;21.954;2023-01-16T11:43:15;21.95;;;15.85;;
55268;SDS011;41131;42.990;21.954;2023-01-16T11:46:01;26.05;;;18.33;;
55268;SDS011;41131;42.990;21.954;2023-01-16T11:48:43;30.25;;;19.95;;
55268;SDS011;41131;42.990;21.954;2023-01-16T11:51:20;23.07;;;16.57;;
55268;SDS011;41131;42.990;21.954;2023-01-16T11:53:47;25.30;;;17.73;;
55268;SDS011;41131;42.990;21.954;2023-01-16T12:01:11;36.05;;;26.17;;
55268;SDS011;41131;42.990;21.954;2023-01-16T12:11:55;25.23;;;16.17;;
55268;SDS011;41131;42.990;21.954;2023-01-16T12:14:45;22.50;;;16.60;;
55268;SDS011;41131;42.990;21.954;2023-01-16T12:30:49;23.73;;;16.50;;
55268;SDS011;41131;42.990;21.954;2023-01-16T12:52:00;40.10;;;27.90;;
55268;SDS011;41131;42.990;21.954;2023-01-16T12:54:33;41.38;;;27.60;;
55268;SDS011;41131;42.990;21.954;2023-01-16T13:04:42;69.22;;;36.40;;
55268;SDS011;41131;42.990;21.954;2023-01-16T13:07:12;52.88;;;30.05;;
55268;SDS011;41131;42.990;21.954;2023-01-16T13:14:51;68.57;;;41.35;;
55268;SDS011;41131;42.990;21.954;2023-01-16T13:17:21;74.05;;;42.58;;
55268;SDS011;41131;42.990;21.954;2023-01-16T13:19:49;41.72;;;26.50;;
55268;SDS011;41131;42.990;21.954;2023-01-16T13:22:30;36.47;;;23.88;;
55268;SDS011;41131;42.990;21.954;2023-01-16T13:27:42;34.05;;;22.88;;
55268;SDS011;41131;42.990;21.954;2023-01-16T13:30:16;25.27;;;18.77;;
55268;SDS011;41131;42.990;21.954;2023-01-16T13:32:57;30.00;;;23.40;;
55268;SDS011;41131;42.990;21.954;2023-01-16T13:35:28;158.63;;;99.93;;
55268;SDS011;41131;42.990;21.954;2023-01-16T13:42:57;70.90;;;39.45;;
55268;SDS011;41131;42.990;21.954;2023-01-16T13:45:44;52.85;;;30.85;;
55268;SDS011;41131;42.990;21.954;2023-01-16T13:48:32;50.83;;;28.63;;
55268;SDS011;41131;42.990;21.954;2023-01-16T13:51:02;42.08;;;25.48;;
55268;SDS011;41131;42.990;21.954;2023-01-16T13:53:29;64.65;;;35.38;;
55268;SDS011;41131;42.990;21.954;2023-01-16T13:56:06;44.08;;;29.25;;
55268;SDS011;41131;42.990;21.954;2023-01-16T13:58:32;34.78;;;26.05;;
55268;SDS011;41131;42.990;21.954;2023-01-16T14:01:03;40.65;;;22.42;;
55268;SDS011;41131;42.990;21.954;2023-01-16T14:03:31;36.80;;;24.95;;
55268;SDS011;41131;42.990;21.954;2023-01-16T14:08:46;25.80;;;16.75;;
55268;SDS011;41131;42.990;21.954;2023-01-16T14:11:34;35.35;;;23.95;;
55268;SDS011;41131;42.990;21.954;2023-01-16T14:17:09;34.63;;;22.10;;
55268;SDS011;41131;42.990;21.954;2023-01-16T14:19:36;42.67;;;20.38;;
55268;SDS011;41131;42.990;21.954;2023-01-16T14:22:03;41.70;;;25.95;;
55268;SDS011;41131;42.990;21.954;2023-01-16T14:24:41;45.67;;;29.05;;
55268;SDS011;41131;42.990;21.954;2023-01-16T14:27:13;41.22;;;26.30;;
55268;SDS011;41131;42.990;21.954;2023-01-16T14:29:44;41.00;;;26.05;;
55268;SDS011;41131;42.990;21.954;2023-01-16T14:34:38;33.20;;;21.65;;
55268;SDS011;41131;42.990;21.954;2023-01-16T14:37:17;26.38;;;20.10;;
55268;SDS011;41131;42.990;21.954;2023-01-16T14:39:49;35.15;;;22.02;;
55268;SDS011;41131;42.990;21.954;2023-01-16T14:42:20;35.25;;;25.63;;
55268;SDS011;41131;42.990;21.954;2023-01-16T14:54:07;107.18;;;70.88;;
55268;SDS011;41131;42.990;21.954;2023-01-16T14:56:57;154.05;;;114.57;;
55268;SDS011;41131;42.990;21.954;2023-01-16T15:01:53;276.65;;;176.82;;
55268;SDS011;41131;42.990;21.954;2023-01-16T15:04:46;222.70;;;152.73;;
55268;SDS011;41131;42.990;21.954;2023-01-16T15:07:17;258.13;;;176.63;;
55268;SDS011;41131;42.990;21.954;2023-01-16T15:09:43;320.75;;;209.35;;
55268;SDS011;41131;42.990;21.954;2023-01-16T15:12:13;216.60;;;142.80;;
55268;SDS011;41131;42.990;21.954;2023-01-16T15:15:00;239.38;;;147.02;;
55268;SDS011;41131;42.990;21.954;2023-01-16T15:17:35;236.60;;;151.23;;
55268;SDS011;41131;42.990;21.954;2023-01-16T15:20:26;110.05;;;71.07;;
55268;SDS011;41131;42.990;21.954;2023-01-16T15:23:30;117.53;;;74.35;;
55268;SDS011;41131;42.990;21.954;2023-01-16T15:30:59;444.67;;;219.48;;
55268;SDS011;41131;42.990;21.954;2023-01-16T15:33:27;142.77;;;80.20;;
55268;SDS011;41131;42.990;21.954;2023-01-16T15:41:41;40.45;;;31.42;;
55268;SDS011;41131;42.990;21.954;2023-01-16T15:44:27;66.55;;;45.92;;
55268;SDS011;41131;42.990;21.954;2023-01-16T15:52:26;41.80;;;28.90;;
55268;SDS011;41131;42.990;21.954;2023-01-16T15:54:52;28.95;;;20.02;;
55268;SDS011;41131;42.990;21.954;2023-01-16T15:57:18;60.05;;;38.65;;
55268;SDS011;41131;42.990;21.954;2023-01-16T15:59:56;115.75;;;65.95;;
55268;SDS011;41131;42.990;21.954;2023-01-16T16:02:23;53.95;;;34.90;;
55268;SDS011;41131;42.990;21.954;2023-01-16T16:04:56;67.22;;;39.55;;
55268;SDS011;41131;42.990;21.954;2023-01-16T16:07:24;97.60;;;51.10;;
55268;SDS011;41131;42.990;21.954;2023-01-16T16:09:53;157.13;;;81.55;;
55268;SDS011;41131;42.990;21.954;2023-01-16T16:12:19;55.15;;;34.50;;
55268;SDS011;41131;42.990;21.954;2023-01-16T16:14:49;41.65;;;27.75;;
55268;SDS011;41131;42.990;21.954;2023-01-16T16:17:34;106.10;;;51.80;;
55268;SDS011;41131;42.990;21.954;2023-01-16T16:20:35;56.63;;;37.58;;
55268;SDS011;41131;42.990;21.954;2023-01-16T16:25:57;88.28;;;63.65;;
55268;SDS011;41131;42.990;21.954;2023-01-16T16:28:24;87.55;;;51.15;;
55268;SDS011;41131;42.990;21.954;2023-01-16T16:30:55;97.68;;;57.15;;
55268;SDS011;41131;42.990;21.954;2023-01-16T16:33:34;40.80;;;29.35;;
55268;SDS011;41131;42.990;21.954;2023-01-16T16:36:03;53.40;;;33.60;;
55268;SDS011;41131;42.990;21.954;2023-01-16T16:38:31;44.83;;;33.03;;
55268;SDS011;41131;42.990;21.954;2023-01-16T16:46:30;63.90;;;41.83;;
55268;SDS011;41131;42.990;21.954;2023-01-16T16:48:58;43.08;;;27.70;;
55268;SDS011;41131;42.990;21.954;2023-01-16T16:51:43;26.00;;;17.65;;
55268;SDS011;41131;42.990;21.954;2023-01-16T16:54:15;23.25;;;15.15;;
55268;SDS011;41131;42.990;21.954;2023-01-16T16:56:47;34.47;;;24.23;;
55268;SDS011;41131;42.990;21.954;2023-01-16T16:59:15;33.17;;;20.17;;
55268;SDS011;41131;42.990;21.954;2023-01-16T17:01:42;40.63;;;24.48;;
55268;SDS011;41131;42.990;21.954;2023-01-16T17:04:10;47.10;;;27.50;;
55268;SDS011;41131;42.990;21.954;2023-01-16T17:06:41;38.22;;;26.00;;
55268;SDS011;41131;42.990;21.954;2023-01-16T17:09:13;52.72;;;39.47;;
55268;SDS011;41131;42.990;21.954;2023-01-16T17:11:42;71.88;;;55.38;;
55268;SDS011;41131;42.990;21.954;2023-01-16T17:14:09;76.72;;;54.20;;
55268;SDS011;41131;42.990;21.954;2023-01-16T17:16:35;119.82;;;83.35;;
55268;SDS011;41131;42.990;21.954;2023-01-16T17:19:03;131.52;;;87.15;;
55268;SDS011;41131;42.990;21.954;2023-01-16T17:21:29;154.40;;;103.68;;
55268;SDS011;41131;42.990;21.954;2023-01-16T17:24:01;154.38;;;90.85;;
55268;SDS011;41131;42.990;21.954;2023-01-16T17:26:29;105.97;;;71.50;;
55268;SDS011;41131;42.990;21.954;2023-01-16T17:28:57;131.30;;;87.78;;
55268;SDS011;41131;42.990;21.954;2023-01-16T17:31:24;154.68;;;111.10;;
55268;SDS011;41131;42.990;21.954;2023-01-16T17:33:50;208.60;;;138.65;;
55268;SDS011;41131;42.990;21.954;2023-01-16T17:36:21;363.30;;;224.63;;